sensor_id;sensor_type;location;lat;lon;timestamp;P1;durP1;ratioP1;P2;durP2;ratioP2
38089;SDS011;23904;52.322;10.232;2023-02-28T00:00:24;14.60;;;5.80;;
38089;SDS011;23904;52.322;10.232;2023-02-28T00:02:50;9.02;;;4.93;;
38089;SDS011;23904;52.322;10.232;2023-02-28T00:05:17;11.63;;;5.60;;
38089;SDS011;23904;52.322;10.232;2023-02-28T00:07:48;14.90;;;5.18;;
38089;SDS011;23904;52.322;10.232;2023-02-28T00:10:16;15.10;;;6.85;;
38089;SDS011;23904;52.322;10.232;2023-02-28T00:12:50;12.82;;;6.72;;
38089;SDS011;23904;52.322;10.232;2023-02-28T00:15:17;16.80;;;6.68;;
38089;SDS011;23904;52.322;10.232;2023-02-28T00:17:43;13.43;;;7.32;;
38089;SDS011;23904;52.322;10.232;2023-02-28T00:20:10;12.93;;;5.97;;
38089;SDS011;23904;52.322;10.232;2023-02-28T00:22:41;15.73;;;7.80;;
38089;SDS011;23904;52.322;10.232;2023-02-28T00:25:11;11.30;;;6.32;;
38089;SDS011;23904;52.322;10.232;2023-02-28T00:27:41;16.13;;;6.85;;
38089;SDS011;23904;52.322;10.232;2023-02-28T00:30:08;13.73;;;6.38;;
38089;SDS011;23904;52.322;10.232;2023-02-28T00:32:41;17.10;;;7.03;;
38089;SDS011;23904;52.322;10.232;2023-02-28T00:35:07;13.07;;;7.07;;
38089;SDS011;23904;52.322;10.232;2023-02-28T00:37:34;13.30;;;6.82;;
38089;SDS011;23904;52.322;10.232;2023-02-28T00:40:00;11.45;;;6.43;;
38089;SDS011;23904;52.322;10.232;2023-02-28T00:42:27;16.15;;;7.38;;
38089;SDS011;23904;52.322;10.232;2023-02-28T00:44:52;12.43;;;6.72;;
38089;SDS011;23904;52.322;10.232;2023-02-28T00:47:19;13.90;;;6.70;;
38089;SDS011;23904;52.322;10.232;2023-02-28T00:49:44;14.00;;;6.53;;
38089;SDS011;23904;52.322;10.232;2023-02-28T00:52:10;15.98;;;6.53;;
38089;SDS011;23904;52.322;10.232;2023-02-28T00:54:35;20.75;;;7.97;;
38089;SDS011;23904;52.322;10.232;2023-02-28T00:57:01;19.75;;;7.88;;
38089;SDS011;23904;52.322;10.232;2023-02-28T00:59:26;15.52;;;6.82;;
38089;SDS011;23904;52.322;10.232;2023-02-28T01:01:52;14.98;;;6.72;;
38089;SDS011;23904;52.322;10.232;2023-02-28T01:04:17;18.00;;;7.40;;
38089;SDS011;23904;52.322;10.232;2023-02-28T01:06:43;17.60;;;6.90;;
38089;SDS011;23904;52.322;10.232;2023-02-28T01:09:09;14.73;;;7.40;;
38089;SDS011;23904;52.322;10.232;2023-02-28T01:11:35;18.08;;;8.23;;
38089;SDS011;23904;52.322;10.232;2023-02-28T01:14:01;12.52;;;6.95;;
38089;SDS011;23904;52.322;10.232;2023-02-28T01:16:27;15.60;;;6.30;;
38089;SDS011;23904;52.322;10.232;2023-02-28T01:18:53;14.10;;;7.47;;
38089;SDS011;23904;52.322;10.232;2023-02-28T01:21:20;17.00;;;7.68;;
38089;SDS011;23904;52.322;10.232;2023-02-28T01:23:47;16.40;;;7.35;;
38089;SDS011;23904;52.322;10.232;2023-02-28T01:26:14;15.23;;;7.57;;
38089;SDS011;23904;52.322;10.232;2023-02-28T01:28:45;14.48;;;7.00;;
38089;SDS011;23904;52.322;10.232;2023-02-28T01:31:11;16.58;;;6.53;;
38089;SDS011;23904;52.322;10.232;2023-02-28T01:33:38;14.25;;;7.90;;
38089;SDS011;23904;52.322;10.232;2023-02-28T01:36:05;17.05;;;8.45;;
38089;SDS011;23904;52.322;10.232;2023-02-28T01:38:37;15.15;;;7.32;;
38089;SDS011;23904;52.322;10.232;2023-02-28T01:41:03;14.35;;;6.90;;
38089;SDS011;23904;52.322;10.232;2023-02-28T01:43:30;15.88;;;7.32;;
38089;SDS011;23904;52.322;10.232;2023-02-28T01:46:09;17.00;;;7.80;;
38089;SDS011;23904;52.322;10.232;2023-02-28T01:48:43;12.77;;;6.72;;
38089;SDS011;23904;52.322;10.232;2023-02-28T01:51:30;14.18;;;6.82;;
38089;SDS011;23904;52.322;10.232;2023-02-28T01:54:29;12.85;;;7.50;;
38089;SDS011;23904;52.322;10.232;2023-02-28T01:57:02;19.83;;;8.57;;
38089;SDS011;23904;52.322;10.232;2023-02-28T02:02:14;13.90;;;7.93;;
38089;SDS011;23904;52.322;10.232;2023-02-28T02:04:45;12.40;;;6.50;;
38089;SDS011;23904;52.322;10.232;2023-02-28T02:07:18;14.02;;;7.68;;
38089;SDS011;23904;52.322;10.232;2023-02-28T02:09:45;15.00;;;6.80;;
38089;SDS011;23904;52.322;10.232;2023-02-28T02:12:33;11.40;;;5.88;;
38089;SDS011;23904;52.322;10.232;2023-02-28T02:15:15;8.77;;;5.47;;
38089;SDS011;23904;52.322;10.232;2023-02-28T02:17:51;11.98;;;6.68;;
38089;SDS011;23904;52.322;10.232;2023-02-28T02:20:27;13.55;;;5.75;;
38089;SDS011;23904;52.322;10.232;2023-02-28T02:29:52;13.23;;;4.63;;
38089;SDS011;23904;52.322;10.232;2023-02-28T02:32:49;11.70;;;7.18;;
38089;SDS011;23904;52.322;10.232;2023-02-28T02:38:26;12.98;;;6.50;;
38089;SDS011;23904;52.322;10.232;2023-02-28T02:44:02;18.33;;;7.60;;
38089;SDS011;23904;52.322;10.232;2023-02-28T02:46:41;11.68;;;6.70;;
38089;SDS011;23904;52.322;10.232;2023-02-28T02:49:11;10.27;;;6.25;;
38089;SDS011;23904;52.322;10.232;2023-02-28T02:51:41;11.10;;;6.20;;
38089;SDS011;23904;52.322;10.232;2023-02-28T02:54:08;14.18;;;6.03;;
38089;SDS011;23904;52.322;10.232;2023-02-28T02:56:42;11.68;;;4.32;;
38089;SDS011;23904;52.322;10.232;2023-02-28T02:59:11;12.90;;;6.00;;
38089;SDS011;23904;52.322;10.232;2023-02-28T03:01:45;11.02;;;6.60;;
38089;SDS011;23904;52.322;10.232;2023-02-28T03:06:47;15.20;;;5.63;;
38089;SDS011;23904;52.322;10.232;2023-02-28T03:09:20;12.38;;;5.78;;
38089;SDS011;23904;52.322;10.232;2023-02-28T03:11:46;12.18;;;5.35;;
38089;SDS011;23904;52.322;10.232;2023-02-28T03:17:30;13.15;;;6.32;;
38089;SDS011;23904;52.322;10.232;2023-02-28T03:23:09;15.05;;;5.97;;
38089;SDS011;23904;52.322;10.232;2023-02-28T03:25:54;12.15;;;5.57;;
38089;SDS011;23904;52.322;10.232;2023-02-28T03:28:36;9.52;;;5.40;;
38089;SDS011;23904;52.322;10.232;2023-02-28T03:31:19;11.00;;;5.30;;
38089;SDS011;23904;52.322;10.232;2023-02-28T03:33:58;9.57;;;5.90;;
38089;SDS011;23904;52.322;10.232;2023-02-28T03:36:28;11.07;;;6.85;;
38089;SDS011;23904;52.322;10.232;2023-02-28T03:39:03;12.50;;;5.88;;
38089;SDS011;23904;52.322;10.232;2023-02-28T03:41:35;10.02;;;5.28;;
38089;SDS011;23904;52.322;10.232;2023-02-28T03:44:17;8.88;;;5.40;;
38089;SDS011;23904;52.322;10.232;2023-02-28T03:46:55;10.23;;;4.85;;
38089;SDS011;23904;52.322;10.232;2023-02-28T03:49:35;12.27;;;5.90;;
38089;SDS011;23904;52.322;10.232;2023-02-28T03:52:08;8.38;;;5.68;;
38089;SDS011;23904;52.322;10.232;2023-02-28T03:54:35;14.13;;;5.72;;
38089;SDS011;23904;52.322;10.232;2023-02-28T03:57:18;13.98;;;6.85;;
38089;SDS011;23904;52.322;10.232;2023-02-28T04:00:27;10.52;;;5.70;;
38089;SDS011;23904;52.322;10.232;2023-02-28T04:03:00;10.98;;;7.32;;
38089;SDS011;23904;52.322;10.232;2023-02-28T04:05:26;10.43;;;6.15;;
38089;SDS011;23904;52.322;10.232;2023-02-28T04:07:52;10.55;;;6.10;;
38089;SDS011;23904;52.322;10.232;2023-02-28T04:10:19;12.00;;;5.57;;
38089;SDS011;23904;52.322;10.232;2023-02-28T04:12:45;14.32;;;5.93;;
38089;SDS011;23904;52.322;10.232;2023-02-28T04:15:10;11.75;;;5.70;;
38089;SDS011;23904;52.322;10.232;2023-02-28T04:17:36;9.85;;;6.75;;
38089;SDS011;23904;52.322;10.232;2023-02-28T04:20:02;10.25;;;5.97;;
38089;SDS011;23904;52.322;10.232;2023-02-28T04:22:34;10.55;;;6.32;;
38089;SDS011;23904;52.322;10.232;2023-02-28T04:24:59;16.92;;;7.30;;
38089;SDS011;23904;52.322;10.232;2023-02-28T04:27:25;12.18;;;5.65;;
38089;SDS011;23904;52.322;10.232;2023-02-28T04:29:50;17.50;;;6.20;;
38089;SDS011;23904;52.322;10.232;2023-02-28T04:32:16;11.00;;;6.25;;
38089;SDS011;23904;52.322;10.232;2023-02-28T04:34:41;15.77;;;6.88;;
38089;SDS011;23904;52.322;10.232;2023-02-28T04:37:07;15.93;;;6.20;;
38089;SDS011;23904;52.322;10.232;2023-02-28T04:39:34;12.05;;;5.78;;
38089;SDS011;23904;52.322;10.232;2023-02-28T04:42:01;9.70;;;5.53;;
38089;SDS011;23904;52.322;10.232;2023-02-28T04:44:28;13.55;;;6.00;;
38089;SDS011;23904;52.322;10.232;2023-02-28T04:46:53;20.58;;;6.78;;
38089;SDS011;23904;52.322;10.232;2023-02-28T04:49:19;13.23;;;6.45;;
38089;SDS011;23904;52.322;10.232;2023-02-28T04:51:44;11.43;;;5.70;;
38089;SDS011;23904;52.322;10.232;2023-02-28T04:54:10;12.07;;;5.97;;
38089;SDS011;23904;52.322;10.232;2023-02-28T04:56:35;13.88;;;6.38;;
38089;SDS011;23904;52.322;10.232;2023-02-28T04:59:01;12.15;;;5.55;;
38089;SDS011;23904;52.322;10.232;2023-02-28T05:01:28;12.40;;;5.90;;
38089;SDS011;23904;52.322;10.232;2023-02-28T05:03:59;11.35;;;5.50;;
38089;SDS011;23904;52.322;10.232;2023-02-28T05:06:27;13.05;;;5.53;;
38089;SDS011;23904;52.322;10.232;2023-02-28T05:08:56;14.18;;;6.20;;
38089;SDS011;23904;52.322;10.232;2023-02-28T05:11:26;12.23;;;6.07;;
38089;SDS011;23904;52.322;10.232;2023-02-28T05:14:04;11.25;;;5.82;;
38089;SDS011;23904;52.322;10.232;2023-02-28T05:16:34;11.18;;;5.07;;
38089;SDS011;23904;52.322;10.232;2023-02-28T05:19:00;12.05;;;5.85;;
38089;SDS011;23904;52.322;10.232;2023-02-28T05:24:00;15.38;;;7.03;;
38089;SDS011;23904;52.322;10.232;2023-02-28T05:26:29;17.48;;;9.18;;
38089;SDS011;23904;52.322;10.232;2023-02-28T05:28:55;15.18;;;7.43;;
38089;SDS011;23904;52.322;10.232;2023-02-28T05:31:22;14.38;;;7.90;;
38089;SDS011;23904;52.322;10.232;2023-02-28T05:33:48;17.05;;;7.93;;
38089;SDS011;23904;52.322;10.232;2023-02-28T05:36:13;18.90;;;8.25;;
38089;SDS011;23904;52.322;10.232;2023-02-28T05:38:39;18.63;;;9.15;;
38089;SDS011;23904;52.322;10.232;2023-02-28T05:41:08;12.40;;;7.07;;
38089;SDS011;23904;52.322;10.232;2023-02-28T05:43:35;11.10;;;6.38;;
38089;SDS011;23904;52.322;10.232;2023-02-28T05:46:02;13.45;;;7.10;;
38089;SDS011;23904;52.322;10.232;2023-02-28T05:48:33;14.30;;;7.78;;
38089;SDS011;23904;52.322;10.232;2023-02-28T05:51:01;16.92;;;8.27;;
38089;SDS011;23904;52.322;10.232;2023-02-28T05:53:28;12.48;;;6.72;;
38089;SDS011;23904;52.322;10.232;2023-02-28T05:55:54;10.95;;;7.10;;
38089;SDS011;23904;52.322;10.232;2023-02-28T05:58:20;15.48;;;7.45;;
38089;SDS011;23904;52.322;10.232;2023-02-28T06:00:47;12.63;;;6.10;;
38089;SDS011;23904;52.322;10.232;2023-02-28T06:03:13;14.85;;;7.57;;
38089;SDS011;23904;52.322;10.232;2023-02-28T06:05:38;19.25;;;7.63;;
38089;SDS011;23904;52.322;10.232;2023-02-28T06:08:04;15.18;;;6.32;;
38089;SDS011;23904;52.322;10.232;2023-02-28T06:10:32;15.23;;;7.28;;
38089;SDS011;23904;52.322;10.232;2023-02-28T06:13:02;16.38;;;7.50;;
38089;SDS011;23904;52.322;10.232;2023-02-28T06:15:28;17.75;;;7.53;;
38089;SDS011;23904;52.322;10.232;2023-02-28T06:17:54;14.75;;;7.35;;
38089;SDS011;23904;52.322;10.232;2023-02-28T06:20:21;13.18;;;6.63;;
38089;SDS011;23904;52.322;10.232;2023-02-28T06:22:48;15.90;;;7.05;;
38089;SDS011;23904;52.322;10.232;2023-02-28T06:25:15;11.02;;;6.85;;
38089;SDS011;23904;52.322;10.232;2023-02-28T06:27:40;18.10;;;6.78;;
38089;SDS011;23904;52.322;10.232;2023-02-28T06:30:06;10.30;;;6.57;;
38089;SDS011;23904;52.322;10.232;2023-02-28T06:32:32;12.90;;;7.95;;
38089;SDS011;23904;52.322;10.232;2023-02-28T06:34:58;17.33;;;7.93;;
38089;SDS011;23904;52.322;10.232;2023-02-28T06:37:23;17.33;;;7.78;;
38089;SDS011;23904;52.322;10.232;2023-02-28T06:39:53;16.88;;;6.60;;
38089;SDS011;23904;52.322;10.232;2023-02-28T06:42:21;13.25;;;6.82;;
38089;SDS011;23904;52.322;10.232;2023-02-28T06:44:50;12.20;;;6.35;;
38089;SDS011;23904;52.322;10.232;2023-02-28T06:47:16;20.25;;;7.60;;
38089;SDS011;23904;52.322;10.232;2023-02-28T06:49:42;13.55;;;6.65;;
38089;SDS011;23904;52.322;10.232;2023-02-28T06:52:07;17.70;;;6.72;;
38089;SDS011;23904;52.322;10.232;2023-02-28T06:54:35;14.75;;;6.60;;
38089;SDS011;23904;52.322;10.232;2023-02-28T06:57:02;15.18;;;6.70;;
38089;SDS011;23904;52.322;10.232;2023-02-28T06:59:27;15.80;;;6.90;;
38089;SDS011;23904;52.322;10.232;2023-02-28T07:01:53;12.70;;;7.38;;
38089;SDS011;23904;52.322;10.232;2023-02-28T07:04:19;15.10;;;6.47;;
38089;SDS011;23904;52.322;10.232;2023-02-28T07:06:46;15.10;;;8.15;;
38089;SDS011;23904;52.322;10.232;2023-02-28T07:09:11;16.45;;;7.78;;
38089;SDS011;23904;52.322;10.232;2023-02-28T07:11:38;15.88;;;6.38;;
38089;SDS011;23904;52.322;10.232;2023-02-28T07:14:03;14.15;;;6.15;;
38089;SDS011;23904;52.322;10.232;2023-02-28T07:16:29;13.70;;;8.02;;
38089;SDS011;23904;52.322;10.232;2023-02-28T07:18:54;17.85;;;8.63;;
38089;SDS011;23904;52.322;10.232;2023-02-28T07:21:20;14.20;;;5.70;;
38089;SDS011;23904;52.322;10.232;2023-02-28T07:23:46;15.80;;;6.93;;
38089;SDS011;23904;52.322;10.232;2023-02-28T07:26:13;12.85;;;6.38;;
38089;SDS011;23904;52.322;10.232;2023-02-28T07:28:42;13.15;;;6.65;;
38089;SDS011;23904;52.322;10.232;2023-02-28T07:31:09;16.00;;;7.20;;
38089;SDS011;23904;52.322;10.232;2023-02-28T07:33:35;16.02;;;5.97;;
38089;SDS011;23904;52.322;10.232;2023-02-28T07:36:03;8.75;;;5.82;;
38089;SDS011;23904;52.322;10.232;2023-02-28T07:38:38;11.85;;;5.60;;
38089;SDS011;23904;52.322;10.232;2023-02-28T07:41:04;8.52;;;4.70;;
38089;SDS011;23904;52.322;10.232;2023-02-28T07:43:33;12.90;;;5.53;;
38089;SDS011;23904;52.322;10.232;2023-02-28T07:46:03;14.05;;;6.50;;
38089;SDS011;23904;52.322;10.232;2023-02-28T07:48:30;17.23;;;6.47;;
38089;SDS011;23904;52.322;10.232;2023-02-28T07:50:56;10.10;;;5.18;;
38089;SDS011;23904;52.322;10.232;2023-02-28T07:53:22;12.18;;;4.80;;
38089;SDS011;23904;52.322;10.232;2023-02-28T07:55:48;10.55;;;5.38;;
38089;SDS011;23904;52.322;10.232;2023-02-28T07:58:14;12.20;;;4.82;;
38089;SDS011;23904;52.322;10.232;2023-02-28T08:00:39;12.00;;;5.43;;
38089;SDS011;23904;52.322;10.232;2023-02-28T08:03:05;12.07;;;5.30;;
38089;SDS011;23904;52.322;10.232;2023-02-28T08:05:30;11.20;;;5.10;;
38089;SDS011;23904;52.322;10.232;2023-02-28T08:07:56;8.73;;;4.53;;
38089;SDS011;23904;52.322;10.232;2023-02-28T08:10:22;11.13;;;5.07;;
38089;SDS011;23904;52.322;10.232;2023-02-28T08:12:48;13.10;;;6.22;;
38089;SDS011;23904;52.322;10.232;2023-02-28T08:15:14;10.73;;;4.97;;
38089;SDS011;23904;52.322;10.232;2023-02-28T08:17:40;7.75;;;4.90;;
38089;SDS011;23904;52.322;10.232;2023-02-28T08:20:06;8.43;;;4.95;;
38089;SDS011;23904;52.322;10.232;2023-02-28T08:22:32;9.05;;;4.63;;
38089;SDS011;23904;52.322;10.232;2023-02-28T08:24:58;10.30;;;3.97;;
38089;SDS011;23904;52.322;10.232;2023-02-28T08:27:23;7.13;;;3.58;;
38089;SDS011;23904;52.322;10.232;2023-02-28T08:29:49;8.90;;;4.13;;
38089;SDS011;23904;52.322;10.232;2023-02-28T08:32:14;9.02;;;3.58;;
38089;SDS011;23904;52.322;10.232;2023-02-28T08:34:40;8.82;;;3.88;;
38089;SDS011;23904;52.322;10.232;2023-02-28T08:37:05;12.85;;;3.63;;
38089;SDS011;23904;52.322;10.232;2023-02-28T08:39:33;8.95;;;2.97;;
38089;SDS011;23904;52.322;10.232;2023-02-28T08:42:00;6.97;;;2.63;;
38089;SDS011;23904;52.322;10.232;2023-02-28T08:44:28;6.72;;;3.40;;
38089;SDS011;23904;52.322;10.232;2023-02-28T08:46:53;9.40;;;3.90;;
38089;SDS011;23904;52.322;10.232;2023-02-28T08:49:19;6.53;;;3.42;;
38089;SDS011;23904;52.322;10.232;2023-02-28T08:51:44;7.45;;;3.20;;
38089;SDS011;23904;52.322;10.232;2023-02-28T08:54:10;5.18;;;2.80;;
38089;SDS011;23904;52.322;10.232;2023-02-28T08:56:37;7.05;;;2.65;;
38089;SDS011;23904;52.322;10.232;2023-02-28T08:59:03;7.07;;;3.15;;
38089;SDS011;23904;52.322;10.232;2023-02-28T09:01:29;5.38;;;2.90;;
38089;SDS011;23904;52.322;10.232;2023-02-28T09:03:56;10.13;;;2.58;;
38089;SDS011;23904;52.322;10.232;2023-02-28T09:06:24;9.95;;;2.70;;
38089;SDS011;23904;52.322;10.232;2023-02-28T09:08:51;9.32;;;3.50;;
38089;SDS011;23904;52.322;10.232;2023-02-28T09:11:18;8.18;;;3.35;;
38089;SDS011;23904;52.322;10.232;2023-02-28T09:13:44;6.25;;;2.45;;
38089;SDS011;23904;52.322;10.232;2023-02-28T09:16:11;4.47;;;2.55;;
38089;SDS011;23904;52.322;10.232;2023-02-28T09:18:39;7.47;;;3.05;;
38089;SDS011;23904;52.322;10.232;2023-02-28T09:21:09;4.60;;;2.60;;
38089;SDS011;23904;52.322;10.232;2023-02-28T09:23:41;7.22;;;2.33;;
38089;SDS011;23904;52.322;10.232;2023-02-28T09:26:12;5.72;;;2.22;;
38089;SDS011;23904;52.322;10.232;2023-02-28T09:28:50;4.35;;;2.08;;
38089;SDS011;23904;52.322;10.232;2023-02-28T09:31:18;3.08;;;1.63;;
38089;SDS011;23904;52.322;10.232;2023-02-28T09:33:51;5.13;;;2.33;;
38089;SDS011;23904;52.322;10.232;2023-02-28T09:36:20;5.25;;;2.17;;
38089;SDS011;23904;52.322;10.232;2023-02-28T09:38:48;5.57;;;2.30;;
38089;SDS011;23904;52.322;10.232;2023-02-28T09:41:17;5.93;;;2.72;;
38089;SDS011;23904;52.322;10.232;2023-02-28T09:43:52;4.38;;;2.40;;
38089;SDS011;23904;52.322;10.232;2023-02-28T09:46:55;5.57;;;2.90;;
38089;SDS011;23904;52.322;10.232;2023-02-28T09:49:18;6.22;;;2.72;;
38089;SDS011;23904;52.322;10.232;2023-02-28T09:51:50;7.03;;;3.05;;
38089;SDS011;23904;52.322;10.232;2023-02-28T09:54:28;5.57;;;3.17;;
38089;SDS011;23904;52.322;10.232;2023-02-28T09:56:58;4.88;;;2.88;;
38089;SDS011;23904;52.322;10.232;2023-02-28T10:05:19;6.45;;;3.55;;
38089;SDS011;23904;52.322;10.232;2023-02-28T10:07:55;10.60;;;3.60;;
38089;SDS011;23904;52.322;10.232;2023-02-28T10:10:45;6.57;;;3.22;;
38089;SDS011;23904;52.322;10.232;2023-02-28T10:13:36;7.00;;;3.35;;
38089;SDS011;23904;52.322;10.232;2023-02-28T10:16:34;7.13;;;3.55;;
38089;SDS011;23904;52.322;10.232;2023-02-28T10:22:01;6.68;;;3.67;;
38089;SDS011;23904;52.322;10.232;2023-02-28T10:24:47;7.20;;;3.25;;
38089;SDS011;23904;52.322;10.232;2023-02-28T10:27:22;6.50;;;3.45;;
38089;SDS011;23904;52.322;10.232;2023-02-28T10:29:55;5.63;;;2.40;;
38089;SDS011;23904;52.322;10.232;2023-02-28T10:32:29;7.78;;;2.13;;
38089;SDS011;23904;52.322;10.232;2023-02-28T10:35:07;3.72;;;2.17;;
38089;SDS011;23904;52.322;10.232;2023-02-28T10:37:50;4.85;;;2.60;;
38089;SDS011;23904;52.322;10.232;2023-02-28T10:43:00;5.05;;;2.40;;
38089;SDS011;23904;52.322;10.232;2023-02-28T10:48:30;4.65;;;2.00;;
38089;SDS011;23904;52.322;10.232;2023-02-28T10:51:00;7.65;;;2.42;;
38089;SDS011;23904;52.322;10.232;2023-02-28T10:53:48;5.70;;;2.20;;
38089;SDS011;23904;52.322;10.232;2023-02-28T10:56:17;3.22;;;1.63;;
38089;SDS011;23904;52.322;10.232;2023-02-28T11:01:39;4.47;;;1.70;;
38089;SDS011;23904;52.322;10.232;2023-02-28T11:04:31;3.30;;;1.52;;
38089;SDS011;23904;52.322;10.232;2023-02-28T11:07:06;5.72;;;1.88;;
38089;SDS011;23904;52.322;10.232;2023-02-28T11:09:45;2.70;;;1.30;;
38089;SDS011;23904;52.322;10.232;2023-02-28T11:12:22;3.78;;;1.58;;
38089;SDS011;23904;52.322;10.232;2023-02-28T11:15:07;4.57;;;1.80;;
38089;SDS011;23904;52.322;10.232;2023-02-28T11:17:56;5.03;;;1.77;;
38089;SDS011;23904;52.322;10.232;2023-02-28T11:20:47;3.75;;;2.03;;
38089;SDS011;23904;52.322;10.232;2023-02-28T11:23:19;4.80;;;2.10;;
38089;SDS011;23904;52.322;10.232;2023-02-28T11:25:49;3.33;;;1.80;;
38089;SDS011;23904;52.322;10.232;2023-02-28T11:28:29;4.22;;;1.90;;
38089;SDS011;23904;52.322;10.232;2023-02-28T11:31:21;5.05;;;1.92;;
38089;SDS011;23904;52.322;10.232;2023-02-28T11:33:53;3.42;;;1.90;;
38089;SDS011;23904;52.322;10.232;2023-02-28T11:36:22;5.32;;;2.15;;
38089;SDS011;23904;52.322;10.232;2023-02-28T11:38:51;5.30;;;2.20;;
38089;SDS011;23904;52.322;10.232;2023-02-28T11:46:59;6.70;;;2.53;;
38089;SDS011;23904;52.322;10.232;2023-02-28T11:52:26;3.28;;;1.75;;
38089;SDS011;23904;52.322;10.232;2023-02-28T11:58:13;6.43;;;2.58;;
38089;SDS011;23904;52.322;10.232;2023-02-28T12:10:04;6.75;;;2.53;;
38089;SDS011;23904;52.322;10.232;2023-02-28T12:12:53;6.18;;;2.45;;
38089;SDS011;23904;52.322;10.232;2023-02-28T12:15:53;6.53;;;2.47;;
38089;SDS011;23904;52.322;10.232;2023-02-28T12:19:04;6.90;;;2.10;;
38089;SDS011;23904;52.322;10.232;2023-02-28T12:22:32;4.90;;;2.28;;
38089;SDS011;23904;52.322;10.232;2023-02-28T12:28:06;3.38;;;1.73;;
38089;SDS011;23904;52.322;10.232;2023-02-28T12:30:36;6.47;;;2.05;;
38089;SDS011;23904;52.322;10.232;2023-02-28T12:33:12;5.47;;;1.90;;
38089;SDS011;23904;52.322;10.232;2023-02-28T12:35:52;3.85;;;2.17;;
38089;SDS011;23904;52.322;10.232;2023-02-28T12:41:13;5.57;;;2.05;;
38089;SDS011;23904;52.322;10.232;2023-02-28T12:44:19;4.72;;;2.00;;
38089;SDS011;23904;52.322;10.232;2023-02-28T12:46:58;4.75;;;2.28;;
38089;SDS011;23904;52.322;10.232;2023-02-28T12:52:19;2.78;;;1.70;;
38089;SDS011;23904;52.322;10.232;2023-02-28T12:54:55;2.90;;;1.52;;
38089;SDS011;23904;52.322;10.232;2023-02-28T12:57:36;7.10;;;1.80;;
38089;SDS011;23904;52.322;10.232;2023-02-28T13:00:20;6.07;;;2.10;;
38089;SDS011;23904;52.322;10.232;2023-02-28T13:06:05;4.90;;;2.05;;
38089;SDS011;23904;52.322;10.232;2023-02-28T13:08:59;6.10;;;2.20;;
38089;SDS011;23904;52.322;10.232;2023-02-28T13:11:31;5.93;;;2.30;;
38089;SDS011;23904;52.322;10.232;2023-02-28T13:14:05;5.43;;;2.08;;
38089;SDS011;23904;52.322;10.232;2023-02-28T13:16:56;4.18;;;1.85;;
38089;SDS011;23904;52.322;10.232;2023-02-28T13:19:39;5.85;;;2.40;;
38089;SDS011;23904;52.322;10.232;2023-02-28T13:22:19;5.75;;;2.03;;
38089;SDS011;23904;52.322;10.232;2023-02-28T13:25:49;8.10;;;2.70;;
38089;SDS011;23904;52.322;10.232;2023-02-28T13:27:51;4.18;;;2.50;;
38089;SDS011;23904;52.322;10.232;2023-02-28T13:38:39;5.07;;;2.88;;
38089;SDS011;23904;52.322;10.232;2023-02-28T13:46:28;3.70;;;2.40;;
38089;SDS011;23904;52.322;10.232;2023-02-28T13:48:54;4.25;;;2.10;;
38089;SDS011;23904;52.322;10.232;2023-02-28T13:57:14;4.70;;;2.47;;
38089;SDS011;23904;52.322;10.232;2023-02-28T14:00:23;4.88;;;2.40;;
38089;SDS011;23904;52.322;10.232;2023-02-28T14:03:23;5.00;;;2.55;;
38089;SDS011;23904;52.322;10.232;2023-02-28T14:11:51;6.75;;;2.97;;
38089;SDS011;23904;52.322;10.232;2023-02-28T14:17:05;5.45;;;2.75;;
38089;SDS011;23904;52.322;10.232;2023-02-28T14:19:34;6.57;;;2.67;;
38089;SDS011;23904;52.322;10.232;2023-02-28T14:27:48;5.88;;;2.50;;
38089;SDS011;23904;52.322;10.232;2023-02-28T14:31:09;6.05;;;2.70;;
38089;SDS011;23904;52.322;10.232;2023-02-28T14:36:52;5.70;;;2.70;;
38089;SDS011;23904;52.322;10.232;2023-02-28T14:39:22;5.65;;;3.40;;
38089;SDS011;23904;52.322;10.232;2023-02-28T14:41:50;4.15;;;2.55;;
38089;SDS011;23904;52.322;10.232;2023-02-28T14:46:48;5.85;;;3.08;;
38089;SDS011;23904;52.322;10.232;2023-02-28T14:49:21;6.93;;;3.38;;
38089;SDS011;23904;52.322;10.232;2023-02-28T14:52:01;5.22;;;3.00;;
38089;SDS011;23904;52.322;10.232;2023-02-28T14:54:54;6.60;;;3.25;;
38089;SDS011;23904;52.322;10.232;2023-02-28T14:57:24;6.43;;;3.38;;
38089;SDS011;23904;52.322;10.232;2023-02-28T15:00:11;4.93;;;3.13;;
38089;SDS011;23904;52.322;10.232;2023-02-28T15:02:40;6.68;;;3.63;;
38089;SDS011;23904;52.322;10.232;2023-02-28T15:07:42;5.13;;;2.70;;
38089;SDS011;23904;52.322;10.232;2023-02-28T15:12:40;5.43;;;2.83;;
38089;SDS011;23904;52.322;10.232;2023-02-28T15:15:14;5.97;;;3.17;;
38089;SDS011;23904;52.322;10.232;2023-02-28T15:17:42;7.20;;;3.20;;
38089;SDS011;23904;52.322;10.232;2023-02-28T15:20:12;5.13;;;3.28;;
38089;SDS011;23904;52.322;10.232;2023-02-28T15:22:40;5.82;;;2.67;;
38089;SDS011;23904;52.322;10.232;2023-02-28T15:25:06;4.63;;;2.30;;
38089;SDS011;23904;52.322;10.232;2023-02-28T15:27:37;4.93;;;2.60;;
38089;SDS011;23904;52.322;10.232;2023-02-28T15:30:18;4.93;;;2.80;;
38089;SDS011;23904;52.322;10.232;2023-02-28T15:33:03;6.22;;;3.47;;
38089;SDS011;23904;52.322;10.232;2023-02-28T15:35:40;6.10;;;2.70;;
38089;SDS011;23904;52.322;10.232;2023-02-28T15:38:16;7.22;;;3.20;;
38089;SDS011;23904;52.322;10.232;2023-02-28T15:40:52;4.78;;;2.70;;
38089;SDS011;23904;52.322;10.232;2023-02-28T15:43:33;4.43;;;2.50;;
38089;SDS011;23904;52.322;10.232;2023-02-28T15:46:11;6.32;;;2.65;;
38089;SDS011;23904;52.322;10.232;2023-02-28T15:51:19;5.43;;;2.85;;
38089;SDS011;23904;52.322;10.232;2023-02-28T15:54:00;5.05;;;3.10;;
38089;SDS011;23904;52.322;10.232;2023-02-28T15:56:31;5.68;;;2.70;;
38089;SDS011;23904;52.322;10.232;2023-02-28T15:59:12;5.80;;;3.08;;
38089;SDS011;23904;52.322;10.232;2023-02-28T16:01:43;6.25;;;3.45;;
38089;SDS011;23904;52.322;10.232;2023-02-28T16:04:13;5.30;;;3.17;;
38089;SDS011;23904;52.322;10.232;2023-02-28T16:06:45;7.13;;;3.45;;
38089;SDS011;23904;52.322;10.232;2023-02-28T16:09:25;6.57;;;3.47;;
38089;SDS011;23904;52.322;10.232;2023-02-28T16:11:53;8.50;;;4.00;;
38089;SDS011;23904;52.322;10.232;2023-02-28T16:14:21;7.65;;;3.42;;
38089;SDS011;23904;52.322;10.232;2023-02-28T16:16:54;7.57;;;3.80;;
38089;SDS011;23904;52.322;10.232;2023-02-28T16:19:22;9.93;;;3.90;;
38089;SDS011;23904;52.322;10.232;2023-02-28T16:21:48;6.78;;;3.05;;
38089;SDS011;23904;52.322;10.232;2023-02-28T16:24:14;10.63;;;3.67;;
38089;SDS011;23904;52.322;10.232;2023-02-28T16:26:40;5.82;;;3.55;;
38089;SDS011;23904;52.322;10.232;2023-02-28T16:29:13;11.70;;;4.55;;
38089;SDS011;23904;52.322;10.232;2023-02-28T16:31:46;8.20;;;3.30;;
38089;SDS011;23904;52.322;10.232;2023-02-28T16:34:12;7.82;;;3.25;;
38089;SDS011;23904;52.322;10.232;2023-02-28T16:36:37;8.75;;;4.75;;
38089;SDS011;23904;52.322;10.232;2023-02-28T16:39:03;8.23;;;3.90;;
38089;SDS011;23904;52.322;10.232;2023-02-28T16:41:29;8.15;;;3.75;;
38089;SDS011;23904;52.322;10.232;2023-02-28T16:43:55;8.90;;;3.42;;
38089;SDS011;23904;52.322;10.232;2023-02-28T16:46:25;14.38;;;3.85;;
38089;SDS011;23904;52.322;10.232;2023-02-28T16:48:56;8.63;;;4.80;;
38089;SDS011;23904;52.322;10.232;2023-02-28T16:51:22;9.63;;;4.00;;
38089;SDS011;23904;52.322;10.232;2023-02-28T16:53:47;9.52;;;5.05;;
38089;SDS011;23904;52.322;10.232;2023-02-28T16:56:22;7.05;;;3.80;;
38089;SDS011;23904;52.322;10.232;2023-02-28T16:58:49;10.45;;;4.97;;